createdAt,value
2022-09-18T00:01:37.003Z,99452.53
2022-09-18T00:04:08.453Z,99459.56
2022-09-18T00:06:39.399Z,99447.16
2022-09-18T00:09:09.205Z,99454.19
2022-09-18T00:11:38.980Z,99416.78
2022-09-18T00:14:11.114Z,99459.56
2022-09-18T00:16:39.727Z,99452.53
2022-09-18T00:19:08.516Z,99456.88
2022-09-18T00:21:37.590Z,99452.53
2022-09-18T00:24:06.884Z,99451.69
2022-09-18T00:26:35.621Z,99457.91
2022-09-18T00:29:03.807Z,99450.66
2022-09-18T00:31:35.373Z,99448.81
2022-09-18T00:34:06.208Z,99438.78
2022-09-18T00:36:35.355Z,99446.13
2022-09-18T00:39:03.875Z,99442.59
2022-09-18T00:41:34.677Z,99442.78
2022-09-18T00:44:38.173Z,99436.38
2022-09-18T00:47:17.550Z,99443.81
2022-09-18T00:49:49.156Z,99440.94
2022-09-18T00:52:19.974Z,99443.44
2022-09-18T00:54:52.172Z,99437.38
2022-09-18T00:57:23.729Z,99431.00
2022-09-18T00:59:54.184Z,99436.38
2022-09-18T01:02:24.188Z,99436.38
2022-09-18T01:04:52.841Z,99442.16
2022-09-18T01:07:36.681Z,99457.91
2022-09-18T01:10:19.529Z,99455.22
2022-09-18T01:12:56.128Z,99456.22
2022-09-18T01:15:31.934Z,99459.94
2022-09-18T01:18:11.867Z,99462.63
2022-09-18T01:21:08.914Z,99470.72
2022-09-18T01:24:19.302Z,99465.31
2022-09-18T01:27:00.327Z,99455.59
2022-09-18T01:29:41.046Z,99453.66
2022-09-18T01:32:16.720Z,99434.53
2022-09-18T01:34:49.294Z,99455.59
2022-09-18T01:37:22.356Z,99450.22
2022-09-18T01:39:55.476Z,99447.72
2022-09-18T01:42:28.863Z,99450.22
2022-09-18T01:45:03.053Z,99444.84
2022-09-18T01:47:37.718Z,99442.94
2022-09-18T01:50:08.350Z,99438.41
2022-09-18T01:52:39.539Z,99443.81
2022-09-18T01:55:15.373Z,99440.06
2022-09-18T01:57:50.280Z,99433.03
2022-09-18T02:00:20.741Z,99437.38
2022-09-18T02:02:53.032Z,99427.66
2022-09-18T02:05:27.589Z,99434.69
2022-09-18T02:08:07.554Z,99431.00
2022-09-18T02:10:39.598Z,99429.31
2022-09-18T02:13:09.943Z,99429.31
2022-09-18T02:15:42.788Z,99426.63
2022-09-18T02:18:16.627Z,99432.00
2022-09-18T02:20:46.853Z,99429.31
2022-09-18T02:23:15.854Z,99430.34
2022-09-18T02:25:47.140Z,99434.69
2022-09-18T02:28:18.494Z,99334.13
2022-09-18T02:30:48.541Z,99433.03
2022-09-18T02:33:28.486Z,99432.00
2022-09-18T02:36:18.738Z,99427.66
2022-09-18T02:38:54.676Z,99427.19
2022-09-18T02:41:33.388Z,99406.97
2022-09-18T02:44:10.052Z,99426.00
2022-09-18T02:46:49.159Z,99428.69
2022-09-18T02:49:29.339Z,99431.38
2022-09-18T02:52:04.585Z,99426.00
2022-09-18T02:54:40.276Z,99417.25
2022-09-18T02:57:15.304Z,99416.41
2022-09-18T02:59:48.024Z,99418.94
2022-09-18T03:02:17.681Z,99412.72
2022-09-18T03:04:45.892Z,99413.53
2022-09-18T03:07:15.995Z,99416.22
2022-09-18T03:09:44.553Z,99410.66
2022-09-18T03:12:13.056Z,99415.22
2022-09-18T03:14:41.205Z,99410.22
2022-09-18T03:17:10.499Z,99415.22
2022-09-18T03:19:39.985Z,99419.78
2022-09-18T03:22:08.317Z,99411.03
2022-09-18T03:24:36.447Z,99416.22
2022-09-18T03:27:05.146Z,99424.31
2022-09-18T03:29:33.236Z,99429.69
2022-09-18T03:32:01.335Z,99424.31
2022-09-18T03:34:29.485Z,99428.03
2022-09-18T03:36:59.050Z,99426.19
2022-09-18T03:39:27.181Z,99424.31
2022-09-18T03:41:55.298Z,99426.00
2022-09-18T03:44:23.380Z,99426.00
2022-09-18T03:46:51.542Z,99425.16
2022-09-18T03:49:19.683Z,99428.69
2022-09-18T03:51:47.794Z,99429.69
2022-09-18T03:54:17.510Z,99432.56
2022-09-18T03:56:46.146Z,99433.78
2022-09-18T03:59:14.257Z,99430.72
2022-09-18T04:01:42.570Z,99438.78
2022-09-18T04:04:10.930Z,99449.56
2022-09-18T04:06:39.027Z,99452.06
2022-09-18T04:09:07.193Z,99451.22
2022-09-18T04:11:36.650Z,99451.22
2022-09-18T04:14:04.754Z,99449.56
2022-09-18T04:16:32.900Z,99436.84
2022-09-18T04:19:01.012Z,99451.22
2022-09-18T04:21:29.106Z,99445.84
2022-09-18T04:23:59.956Z,99446.69
2022-09-18T04:26:28.143Z,99457.44
2022-09-18T04:28:57.598Z,99458.28
2022-09-18T04:31:25.766Z,99458.66
2022-09-18T04:33:53.875Z,99461.97
2022-09-18T04:36:22.052Z,99461.97
2022-09-18T04:38:50.181Z,99464.66
2022-09-18T04:41:18.258Z,99461.97
2022-09-18T04:43:46.374Z,99471.06
2022-09-18T04:46:16.072Z,99472.75
2022-09-18T04:48:49.363Z,99472.75
2022-09-18T04:51:17.720Z,99476.28
2022-09-18T04:53:45.890Z,99464.66
2022-09-18T04:56:13.945Z,99466.53
2022-09-18T04:58:42.053Z,99467.34
2022-09-18T05:01:10.306Z,99454.00
2022-09-18T05:03:39.824Z,99468.19
2022-09-18T05:06:08.267Z,99467.34
2022-09-18T05:08:37.324Z,99461.16
2022-09-18T05:11:05.621Z,99467.34
2022-09-18T05:13:33.729Z,99467.34
2022-09-18T05:16:02.158Z,99475.44
2022-09-18T05:18:30.316Z,99471.06
2022-09-18T05:21:02.542Z,99468.38
2022-09-18T05:23:31.990Z,99464.03
2022-09-18T05:26:00.100Z,99473.78
2022-09-18T05:28:28.190Z,99469.41
2022-09-18T05:30:59.929Z,99466.72
2022-09-18T05:33:28.085Z,99469.41
2022-09-18T05:35:57.027Z,99469.41
2022-09-18T05:38:26.920Z,99465.69
2022-09-18T05:40:55.033Z,99469.41
2022-09-18T05:43:23.136Z,99467.72
2022-09-18T05:45:51.221Z,99467.72
2022-09-18T05:48:19.327Z,99480.19
2022-09-18T05:50:48.495Z,99464.03
2022-09-18T05:53:17.948Z,99413.78
2022-09-18T05:55:47.801Z,99453.09
2022-09-18T05:58:17.309Z,99469.78
2022-09-18T06:00:46.199Z,99469.41
2022-09-18T06:03:16.121Z,99464.03
2022-09-18T06:05:46.325Z,99474.81
2022-09-18T06:08:14.437Z,99463.38
2022-09-18T06:10:42.550Z,99470.22
2022-09-18T06:13:15.629Z,99434.34
2022-09-18T06:15:46.217Z,99470.41
2022-09-18T06:18:15.187Z,99469.41
2022-09-18T06:20:43.753Z,99473.09
2022-09-18T06:23:12.224Z,99474.81
2022-09-18T06:25:40.309Z,99477.50
2022-09-18T06:28:08.400Z,99469.78
2022-09-18T06:30:38.293Z,99485.56
2022-09-18T06:33:08.205Z,99482.88
2022-09-18T06:35:38.367Z,99485.94
2022-09-18T06:38:08.109Z,99489.25
2022-09-18T06:40:36.578Z,99501.69
2022-09-18T06:43:05.140Z,99500.00
2022-09-18T06:45:33.587Z,99477.00
2022-09-18T06:48:06.540Z,99503.72
2022-09-18T06:50:34.662Z,99494.63
2022-09-18T06:53:07.673Z,99505.41
2022-09-18T06:55:38.307Z,99504.75
2022-09-18T06:58:06.397Z,99510.78
2022-09-18T07:00:35.200Z,99510.78
2022-09-18T07:03:05.614Z,99511.81
2022-09-18T07:05:34.359Z,99511.50
2022-09-18T07:08:02.828Z,99519.03
2022-09-18T07:10:30.946Z,99519.03
2022-09-18T07:12:59.227Z,99526.09
2022-09-18T07:15:28.273Z,99525.25
2022-09-18T07:17:57.729Z,99521.53
2022-09-18T07:20:27.262Z,99524.22
2022-09-18T07:22:56.246Z,99521.53
2022-09-18T07:25:24.765Z,99508.19
2022-09-18T07:27:53.018Z,99524.03
2022-09-18T07:30:21.489Z,99525.91
2022-09-18T07:32:50.097Z,99532.97
2022-09-18T07:35:18.328Z,99534.00
2022-09-18T07:37:47.846Z,99538.34
2022-09-18T07:40:16.110Z,99544.75
2022-09-18T07:42:44.220Z,99545.75
2022-09-18T07:45:13.213Z,99541.75
2022-09-18T07:47:41.333Z,99553.81
2022-09-18T07:50:15.724Z,99555.53
2022-09-18T07:52:52.363Z,99556.34
2022-09-18T07:55:21.234Z,99561.25
2022-09-18T07:57:49.612Z,99572.66
2022-09-18T08:00:17.927Z,99565.44
2022-09-18T08:02:46.433Z,99570.81
2022-09-18T08:05:14.731Z,99577.03
2022-09-18T08:07:42.961Z,99575.34
2022-09-18T08:10:12.816Z,99578.88
2022-09-18T08:12:40.973Z,99580.72
2022-09-18T08:15:10.044Z,99587.81
2022-09-18T08:17:45.490Z,99583.59
2022-09-18T08:20:14.977Z,99587.81
2022-09-18T08:22:43.660Z,99593.19
2022-09-18T08:25:13.178Z,99593.19
2022-09-18T08:27:41.988Z,99602.91
2022-09-18T08:30:12.379Z,99602.25
2022-09-18T08:32:40.627Z,99605.63
2022-09-18T08:35:09.877Z,99606.66
2022-09-18T08:37:37.982Z,99602.63
2022-09-18T08:40:09.034Z,99619.25
2022-09-18T08:42:48.353Z,99617.41
2022-09-18T08:45:36.604Z,99622.13
2022-09-18T08:48:13.003Z,99627.13
2022-09-18T08:50:44.116Z,99632.53
2022-09-18T08:53:17.249Z,99630.84
2022-09-18T08:55:49.879Z,99620.09
2022-09-18T08:58:26.205Z,99637.06
2022-09-18T09:00:58.090Z,99624.63
2022-09-18T09:03:35.075Z,99620.47
2022-09-18T09:06:13.398Z,99625.84
2022-09-18T09:09:15.860Z,99627.50
2022-09-18T09:11:55.014Z,99634.53
2022-09-18T09:14:56.135Z,99629.16
2022-09-18T09:17:39.856Z,99628.34
2022-09-18T09:20:21.441Z,99625.84
2022-09-18T09:22:57.567Z,99627.50
2022-09-18T09:25:31.532Z,99623.78
2022-09-18T09:28:06.618Z,99625.66
2022-09-18T09:30:37.717Z,99627.50
2022-09-18T09:33:13.216Z,99617.47
2022-09-18T09:35:46.104Z,99625.84
2022-09-18T09:38:38.911Z,99627.50
2022-09-18T09:41:15.370Z,99639.13
2022-09-18T09:43:48.700Z,99632.88
2022-09-18T09:46:29.188Z,99632.03
2022-09-18T09:49:06.430Z,99639.94
2022-09-18T09:51:44.486Z,99645.31
2022-09-18T09:54:13.699Z,99643.66
2022-09-18T09:56:49.273Z,99649.03
2022-09-18T09:59:25.217Z,99648.19
2022-09-18T10:02:01.003Z,99645.31
2022-09-18T10:04:40.363Z,99630.16
2022-09-18T10:07:18.941Z,99652.38
2022-09-18T10:09:54.201Z,99650.69
2022-09-18T10:12:32.013Z,99654.41
2022-09-18T10:15:12.682Z,99640.66
2022-09-18T10:17:43.322Z,99650.69
2022-09-18T10:20:17.313Z,99658.75
2022-09-18T10:22:47.600Z,99654.41
2022-09-18T10:25:23.588Z,99650.69
2022-09-18T10:27:51.673Z,99650.69
2022-09-18T10:30:19.963Z,99668.53
2022-09-18T10:32:49.462Z,99657.75
2022-09-18T10:35:41.496Z,99663.16
2022-09-18T10:38:33.550Z,99659.78
2022-09-18T10:41:31.997Z,99662.28
2022-09-18T10:44:07.185Z,99648.19
2022-09-18T10:46:37.763Z,99660.63
2022-09-18T10:49:19.932Z,99621.75
2022-09-18T10:51:48.058Z,99659.78
2022-09-18T10:54:18.663Z,99649.88
2022-09-18T10:56:47.251Z,99663.16
2022-09-18T10:59:35.626Z,99650.69
2022-09-18T11:02:07.674Z,99652.56
2022-09-18T11:04:38.482Z,99652.38
2022-09-18T11:07:08.055Z,99663.97
2022-09-18T11:09:39.726Z,99667.50
2022-09-18T11:12:16.250Z,99671.03
2022-09-18T11:14:47.649Z,99666.84
2022-09-18T11:17:34.604Z,99671.84
2022-09-18T11:20:06.605Z,99669.34
2022-09-18T11:22:40.339Z,99675.56
2022-09-18T11:25:19.365Z,99676.59
2022-09-18T11:27:49.889Z,99680.97
2022-09-18T11:30:22.963Z,99675.56
2022-09-18T11:32:54.619Z,99677.41
2022-09-18T11:35:25.763Z,99671.22
2022-09-18T11:37:56.052Z,99672.03
2022-09-18T11:40:27.359Z,99679.28
2022-09-18T11:42:56.862Z,99674.72
2022-09-18T11:45:41.138Z,99654.47
2022-09-18T11:48:24.249Z,99680.97
2022-09-18T11:50:58.842Z,99679.13
2022-09-18T11:53:30.466Z,99684.66
2022-09-18T11:56:03.809Z,99649.16
2022-09-18T11:58:35.733Z,99675.56
2022-09-18T12:01:14.958Z,99688.19
2022-09-18T12:03:49.597Z,99686.34
2022-09-18T12:06:32.815Z,99683.81
2022-09-18T12:09:05.273Z,99686.34
2022-09-18T12:11:37.874Z,99688.00
2022-09-18T12:14:15.658Z,99680.97
2022-09-18T12:16:48.189Z,99684.66
2022-09-18T12:19:22.318Z,99690.69
2022-09-18T12:21:58.773Z,99697.09
2022-09-18T12:24:27.304Z,99698.13
2022-09-18T12:27:07.510Z,99700.81
2022-09-18T12:29:53.923Z,99704.16
2022-09-18T12:32:35.289Z,99714.91
2022-09-18T12:35:15.362Z,99717.59
2022-09-18T12:37:54.869Z,99713.25
2022-09-18T12:40:35.700Z,99710.25
2022-09-18T12:43:25.205Z,99707.88
2022-09-18T12:46:23.977Z,99716.78
2022-09-18T12:49:16.022Z,99708.72
2022-09-18T12:51:47.963Z,99711.59
2022-09-18T12:54:51.311Z,99708.72
2022-09-18T12:57:33.046Z,99724.00
2022-09-18T13:00:05.291Z,99707.28
2022-09-18T13:02:48.061Z,99716.97
2022-09-18T13:05:22.511Z,99717.59
2022-09-18T13:07:55.608Z,99718.63
2022-09-18T13:10:28.693Z,99709.88
2022-09-18T13:13:03.368Z,99720.28
2022-09-18T13:15:35.634Z,99714.28
2022-09-18T13:18:18.657Z,99725.66
2022-09-18T13:20:47.419Z,99714.91
2022-09-18T13:23:20.552Z,99727.53
2022-09-18T13:25:51.790Z,99725.66
2022-09-18T13:28:24.236Z,99722.97
2022-09-18T13:31:24.760Z,99731.06
2022-09-18T13:33:56.317Z,99741.81
2022-09-18T13:36:26.480Z,99736.44
2022-09-18T13:38:56.050Z,99733.75
2022-09-18T13:41:24.835Z,99738.13
2022-09-18T13:43:56.836Z,99743.50
2022-09-18T13:46:36.775Z,99747.19
2022-09-18T13:49:19.336Z,99742.66
2022-09-18T13:51:48.101Z,99749.72
2022-09-18T13:54:25.241Z,99748.91
2022-09-18T13:57:22.222Z,99761.50
2022-09-18T13:59:54.275Z,99754.63
2022-09-18T14:02:37.675Z,99760.66
2022-09-18T14:05:31.039Z,99759.66
2022-09-18T14:08:11.119Z,99759.66
2022-09-18T14:11:16.739Z,99770.44
2022-09-18T14:13:51.918Z,99774.97
2022-09-18T14:16:41.470Z,99783.22
2022-09-18T14:19:33.175Z,99776.81
2022-09-18T14:22:02.625Z,99786.94
2022-09-18T14:24:57.012Z,99790.44
2022-09-18T14:27:48.874Z,99786.94
2022-09-18T14:30:23.374Z,99797.69
2022-09-18T14:33:20.506Z,99802.22
2022-09-18T14:35:58.475Z,99797.69
2022-09-18T14:38:29.805Z,99802.41
2022-09-18T14:41:06.082Z,99804.75
2022-09-18T14:43:34.316Z,99804.75
2022-09-18T14:46:02.550Z,99810.13
2022-09-18T14:48:36.972Z,99806.41
2022-09-18T14:51:07.514Z,99809.94
2022-09-18T14:53:44.197Z,99812.63
2022-09-18T14:56:16.218Z,99817.16
2022-09-18T14:58:47.856Z,99817.16
2022-09-18T15:01:20.092Z,99814.31
2022-09-18T15:03:51.523Z,99776.25
2022-09-18T15:06:22.517Z,99808.09
2022-09-18T15:08:53.212Z,99809.75
2022-09-18T15:11:24.468Z,99808.09
2022-09-18T15:13:54.187Z,99802.72
2022-09-18T15:16:27.229Z,99815.16
2022-09-18T15:18:57.723Z,99809.75
2022-09-18T15:21:32.429Z,99813.31
2022-09-18T15:24:03.935Z,99822.19
2022-09-18T15:26:36.715Z,99824.06
2022-09-18T15:29:14.171Z,99834.66
2022-09-18T15:31:42.496Z,99825.91
2022-09-18T15:34:18.409Z,99828.59
2022-09-18T15:36:47.693Z,99828.59
2022-09-18T15:39:31.095Z,99830.63
2022-09-18T15:42:15.619Z,99826.63
2022-09-18T15:45:19.676Z,99836.69
2022-09-18T15:47:47.947Z,99844.91
2022-09-18T15:50:43.328Z,99842.06
2022-09-18T15:53:27.672Z,99844.06
2022-09-18T15:55:59.807Z,99843.91
2022-09-18T15:58:42.504Z,99844.75
2022-09-18T16:01:24.981Z,99853.66
2022-09-18T16:04:09.203Z,99852.81
2022-09-18T16:06:44.645Z,99847.44
2022-09-18T16:09:26.267Z,99848.47
2022-09-18T16:11:54.748Z,99861.91
2022-09-18T16:14:50.159Z,99859.88
2022-09-18T16:17:55.417Z,99867.31
2022-09-18T16:20:30.278Z,99872.69
2022-09-18T16:23:08.712Z,99866.44
2022-09-18T16:25:41.344Z,99876.38
2022-09-18T16:28:24.094Z,99878.06
2022-09-18T16:30:52.941Z,99887.13
2022-09-18T16:33:23.435Z,99876.72
2022-09-18T16:35:57.100Z,99891.69
2022-09-18T16:38:26.745Z,99890.50
2022-09-18T16:40:55.148Z,99895.88
2022-09-18T16:43:23.586Z,99906.66
2022-09-18T16:45:51.802Z,99912.88
2022-09-18T16:48:20.692Z,99922.78
2022-09-18T16:50:48.894Z,99919.06
2022-09-18T16:53:17.601Z,99926.16
2022-09-18T16:55:50.949Z,99926.50
2022-09-18T16:58:20.961Z,99935.22
2022-09-18T17:00:49.339Z,99937.91
2022-09-18T17:03:18.711Z,99943.31
2022-09-18T17:05:46.870Z,99935.91
2022-09-18T17:08:15.006Z,99945.34
2022-09-18T17:10:45.129Z,99947.00
2022-09-18T17:13:15.478Z,99948.03
2022-09-18T17:15:43.695Z,99949.72
2022-09-18T17:18:11.822Z,99950.56
2022-09-18T17:20:39.903Z,99959.44
2022-09-18T17:23:08.445Z,99956.75
2022-09-18T17:25:36.985Z,99961.16
2022-09-18T17:28:05.110Z,99965.50
2022-09-18T17:30:34.640Z,99972.56
2022-09-18T17:33:02.800Z,99964.81
2022-09-18T17:35:30.908Z,99975.41
2022-09-18T17:37:59.042Z,99969.22
2022-09-18T17:40:27.174Z,99981.66
2022-09-18T17:42:55.347Z,99976.28
2022-09-18T17:45:23.439Z,99985.38
2022-09-18T17:47:54.975Z,99979.97
2022-09-18T17:50:24.866Z,99985.38
2022-09-18T17:52:52.968Z,99983.66
2022-09-18T17:55:21.098Z,99990.75
2022-09-18T17:57:52.913Z,99994.44
2022-09-18T18:00:21.893Z,99992.75
2022-09-18T18:02:50.270Z,100000.16
2022-09-18T18:05:19.942Z,100004.72
2022-09-18T18:07:48.050Z,100000.84
2022-09-18T18:10:16.155Z,100004.03
2022-09-18T18:12:44.258Z,100005.88
2022-09-18T18:15:12.349Z,100011.25
2022-09-18T18:17:40.450Z,100016.00
2022-09-18T18:20:09.853Z,100019.50
2022-09-18T18:22:39.312Z,100020.34
2022-09-18T18:25:08.741Z,100022.38
2022-09-18T18:27:36.961Z,100031.47
2022-09-18T18:30:06.896Z,100034.16
2022-09-18T18:32:35.408Z,100034.31
2022-09-18T18:35:03.500Z,100038.84
2022-09-18T18:37:33.848Z,100047.94
2022-09-18T18:40:04.040Z,100049.63
2022-09-18T18:42:32.675Z,100051.66
2022-09-18T18:45:01.148Z,100047.94
2022-09-18T18:47:29.742Z,100048.28
2022-09-18T18:49:58.173Z,100057.03
2022-09-18T18:52:26.741Z,100067.81
2022-09-18T18:54:54.890Z,100062.44
2022-09-18T18:57:24.492Z,100033.84
2022-09-18T18:59:52.547Z,100060.72
2022-09-18T19:02:20.651Z,100063.41
2022-09-18T19:04:48.772Z,100066.47
2022-09-18T19:07:17.647Z,100074.00
2022-09-18T19:09:45.742Z,100067.81
2022-09-18T19:12:14.207Z,100071.47
2022-09-18T19:14:43.780Z,100080.56
2022-09-18T19:17:14.021Z,100080.56
2022-09-18T19:19:42.452Z,100078.91
2022-09-18T19:22:13.109Z,100088.00
2022-09-18T19:24:41.205Z,100073.88
2022-09-18T19:27:10.362Z,100088.00
2022-09-18T19:29:39.609Z,100088.00
2022-09-18T19:32:09.612Z,100069.16
2022-09-18T19:34:38.042Z,100091.66
2022-09-18T19:37:11.340Z,100086.28
2022-09-18T19:39:39.926Z,100086.63
2022-09-18T19:42:14.803Z,100084.63
2022-09-18T19:44:46.284Z,100090.00
2022-09-18T19:47:21.317Z,100090.00
2022-09-18T19:49:50.988Z,100090.00
2022-09-18T19:52:21.175Z,100096.41
2022-09-18T19:54:50.942Z,100090.34
2022-09-18T19:57:20.024Z,100095.72
2022-09-18T19:59:50.189Z,100103.78
2022-09-18T20:02:20.207Z,100109.34
2022-09-18T20:04:48.396Z,100106.13
2022-09-18T20:07:16.730Z,100113.88
2022-09-18T20:09:44.873Z,100115.56
2022-09-18T20:12:13.104Z,100120.09
2022-09-18T20:14:41.344Z,100124.63
2022-09-18T20:17:10.016Z,100120.94
2022-09-18T20:19:39.528Z,100120.09
2022-09-18T20:22:07.878Z,100121.94
2022-09-18T20:24:35.992Z,100119.25
2022-09-18T20:27:04.156Z,100119.59
2022-09-18T20:29:32.267Z,100127.66
2022-09-18T20:32:00.374Z,100134.06
2022-09-18T20:34:28.515Z,100138.25
2022-09-18T20:36:58.041Z,100137.44
2022-09-18T20:39:26.195Z,100119.91
2022-09-18T20:41:55.495Z,100126.66
2022-09-18T20:44:23.597Z,100132.03
2022-09-18T20:46:56.658Z,100137.44
2022-09-18T20:49:25.013Z,100139.09
2022-09-18T20:51:53.320Z,100135.72
2022-09-18T20:54:22.931Z,100144.47
2022-09-18T20:56:51.014Z,100142.81
2022-09-18T20:59:21.033Z,100141.09
2022-09-18T21:01:49.952Z,100135.88
2022-09-18T21:04:19.942Z,100139.44
2022-09-18T21:06:54.521Z,100138.41
2022-09-18T21:09:24.701Z,100143.13
2022-09-18T21:11:52.852Z,100140.44
2022-09-18T21:14:21.308Z,100148.53
2022-09-18T21:16:49.998Z,100148.53
2022-09-18T21:19:21.005Z,100139.78
2022-09-18T21:21:49.831Z,100142.47
2022-09-18T21:24:18.145Z,100154.25
2022-09-18T21:26:49.158Z,100158.59
2022-09-18T21:29:20.638Z,100155.91
2022-09-18T21:31:50.646Z,100150.53
2022-09-18T21:34:24.017Z,100137.34
2022-09-18T21:36:53.036Z,100148.84
2022-09-18T21:39:21.145Z,100151.53
2022-09-18T21:41:53.390Z,100151.53
2022-09-18T21:44:26.965Z,100154.25
2022-09-18T21:46:56.131Z,100159.63
2022-09-18T21:49:24.348Z,100159.63
2022-09-18T21:51:56.105Z,100154.56
2022-09-18T21:54:25.498Z,100167.84
2022-09-18T21:56:56.678Z,100161.28
2022-09-18T21:59:26.256Z,100166.66
2022-09-18T22:01:55.311Z,100161.63
2022-09-18T22:04:26.369Z,100175.75
2022-09-18T22:06:55.893Z,100129.63
2022-09-18T22:09:25.979Z,100165.00
2022-09-18T22:11:56.782Z,100165.97
2022-09-18T22:14:26.623Z,100155.19
2022-09-18T22:16:55.614Z,100167.00
2022-09-18T22:19:23.978Z,100176.91
2022-09-18T22:21:54.921Z,100176.91
2022-09-18T22:24:26.028Z,100175.06
2022-09-18T22:26:57.804Z,100178.78
2022-09-18T22:29:28.083Z,100178.78
2022-09-18T22:31:56.708Z,100181.47
2022-09-18T22:34:27.421Z,100176.22
2022-09-18T22:36:56.125Z,100182.13
2022-09-18T22:39:24.364Z,100179.72
2022-09-18T22:41:53.155Z,100181.47
2022-09-18T22:44:22.887Z,100193.91
2022-09-18T22:46:53.216Z,100187.13
2022-09-18T22:49:23.328Z,100193.91
2022-09-18T22:51:52.409Z,100195.56
2022-09-18T22:54:24.806Z,100191.91
2022-09-18T22:56:54.132Z,100196.41
2022-09-18T22:59:26.966Z,100199.28
2022-09-18T23:01:57.663Z,100193.91
2022-09-18T23:04:29.290Z,100196.59
2022-09-18T23:06:58.392Z,100201.25
2022-09-18T23:09:27.452Z,100204.66
2022-09-18T23:11:55.799Z,100202.97
2022-09-18T23:14:27.763Z,100202.97
2022-09-18T23:16:56.865Z,100199.41
2022-09-18T23:19:27.164Z,100169.28
2022-09-18T23:21:56.045Z,100202.97
2022-09-18T23:24:24.896Z,100195.88
2022-09-18T23:26:55.067Z,100197.59
2022-09-18T23:29:26.301Z,100206.63
2022-09-18T23:31:57.439Z,100176.53
2022-09-18T23:34:28.905Z,100208.38
2022-09-18T23:37:00.830Z,100198.56
2022-09-18T23:39:30.762Z,100202.97
2022-09-18T23:42:01.410Z,100207.47
2022-09-18T23:44:31.704Z,100209.31
2022-09-18T23:47:00.948Z,100209.31
2022-09-18T23:49:29.872Z,100210.34
2022-09-18T23:51:59.484Z,100212.00
2022-09-18T23:54:29.407Z,100207.47
2022-09-18T23:56:57.734Z,100208.38
2022-09-18T23:59:27.348Z,100208.38
